CMP276 SCEL-MPTO
Flight info
| Callsign | CMP276 |
|---|---|
| Flight time | 5h 54m |
| Altitude | 32000 |
| Route | DONTI1J DONTI UT131 ATEDA UL302 ASEPU/N0452F340 UL302 JCL UL308 KALAR UM674 BOBUG/N0453F350 UM674 ROBIG/N0450F340 UM674 KETOM/N0451F360 UM674 TOKUT SIRIL2 |
| Aircraft | B738/M-SDE2E3FGHIRWXY/LB1 |
Departure
| Time | 2026-05-07 22:22 |
|---|---|
| Airport | Comodoro Arturo Merino Benítez International Airport (SCEL) |
Arrival
| Time | 2026-05-08 04:16 |
|---|---|
| Airport | Tocumen International Airport (MPTO) |
| Time | Latitude | Longitude | Altitude | Speed | Heading |
|---|---|---|---|---|---|
| 2026-05-07 21:56 | -33.39711 | -70.78953 | 1563 ft | 0 kts | 356° |
| 2026-05-07 22:05 | -33.39714 | -70.78953 | 1563 ft | 0 kts | 356° |
| 2026-05-07 22:06 | -33.39733 | -70.78952 | 1563 ft | 2 kts | 1° |
| 2026-05-07 22:06 | -33.39754 | -70.78954 | 1563 ft | 2 kts | 9° |
| 2026-05-07 22:06 | -33.39775 | -70.78960 | 1563 ft | 3 kts | 25° |
| 2026-05-07 22:06 | -33.39790 | -70.78972 | 1563 ft | 3 kts | 61° |
| 2026-05-07 22:07 | -33.39794 | -70.78985 | 1563 ft | 1 kts | 87° |
| 2026-05-07 22:07 | -33.39794 | -70.78989 | 1563 ft | 0 kts | 87° |
| 2026-05-07 22:10 | -33.39794 | -70.78986 | 1563 ft | 2 kts | 89° |
| 2026-05-07 22:10 | -33.39794 | -70.78974 | 1563 ft | 6 kts | 92° |
| 2026-05-07 22:10 | -33.39789 | -70.78897 | 1563 ft | 10 kts | 70° |
| 2026-05-07 22:11 | -33.39739 | -70.78879 | 1563 ft | 8 kts | 349° |
| 2026-05-07 22:11 | -33.39683 | -70.78885 | 1563 ft | 10 kts | 357° |
| 2026-05-07 22:11 | -33.39596 | -70.78889 | 1563 ft | 13 kts | 358° |
| 2026-05-07 22:11 | -33.39509 | -70.78893 | 1563 ft | 12 kts | 358° |
| 2026-05-07 22:12 | -33.39425 | -70.78896 | 1563 ft | 12 kts | 359° |
| 2026-05-07 22:12 | -33.39345 | -70.78898 | 1563 ft | 11 kts | 359° |
| 2026-05-07 22:12 | -33.39308 | -70.78913 | 1563 ft | 2 kts | 265° |
| 2026-05-07 22:12 | -33.39310 | -70.79003 | 1563 ft | 13 kts | 268° |
| 2026-05-07 22:13 | -33.39313 | -70.79104 | 1563 ft | 12 kts | 268° |
| 2026-05-07 22:13 | -33.39316 | -70.79203 | 1563 ft | 12 kts | 268° |
| 2026-05-07 22:13 | -33.39318 | -70.79300 | 1563 ft | 11 kts | 268° |
| 2026-05-07 22:13 | -33.39321 | -70.79391 | 1563 ft | 11 kts | 266° |
| 2026-05-07 22:14 | -33.39327 | -70.79497 | 1563 ft | 15 kts | 267° |
| 2026-05-07 22:14 | -33.39332 | -70.79613 | 1563 ft | 14 kts | 266° |
| 2026-05-07 22:14 | -33.39337 | -70.79721 | 1563 ft | 13 kts | 266° |
| 2026-05-07 22:14 | -33.39342 | -70.79826 | 1563 ft | 12 kts | 266° |
| 2026-05-07 22:15 | -33.39346 | -70.79927 | 1563 ft | 12 kts | 271° |
| 2026-05-07 22:15 | -33.39317 | -70.80016 | 1563 ft | 12 kts | 307° |
| 2026-05-07 22:15 | -33.39241 | -70.80059 | 1563 ft | 12 kts | 357° |
| 2026-05-07 22:15 | -33.39131 | -70.80066 | 1563 ft | 19 kts | 356° |
| 2026-05-07 22:16 | -33.39002 | -70.80075 | 1563 ft | 18 kts | 356° |
| 2026-05-07 22:16 | -33.38883 | -70.80083 | 1563 ft | 17 kts | 356° |
| 2026-05-07 22:16 | -33.38769 | -70.80092 | 1563 ft | 16 kts | 356° |
| 2026-05-07 22:16 | -33.38674 | -70.80098 | 1563 ft | 15 kts | 359° |
| 2026-05-07 22:17 | -33.38581 | -70.80100 | 1563 ft | 14 kts | 359° |
| 2026-05-07 22:17 | -33.38484 | -70.80101 | 1563 ft | 13 kts | 359° |
| 2026-05-07 22:17 | -33.38395 | -70.80102 | 1563 ft | 13 kts | 359° |
| 2026-05-07 22:17 | -33.38308 | -70.80103 | 1563 ft | 12 kts | 359° |
| 2026-05-07 22:18 | -33.38225 | -70.80104 | 1563 ft | 12 kts | 359° |
| 2026-05-07 22:18 | -33.38053 | -70.80124 | 1563 ft | 19 kts | 354° |
| 2026-05-07 22:18 | -33.37914 | -70.80132 | 1563 ft | 20 kts | 356° |
| 2026-05-07 22:19 | -33.37780 | -70.80140 | 1563 ft | 19 kts | 357° |
| 2026-05-07 22:19 | -33.37652 | -70.80148 | 1563 ft | 18 kts | 357° |
| 2026-05-07 22:19 | -33.37531 | -70.80156 | 1563 ft | 17 kts | 356° |
| 2026-05-07 22:19 | -33.37416 | -70.80164 | 1563 ft | 16 kts | 356° |
| 2026-05-07 22:20 | -33.37308 | -70.80172 | 1563 ft | 15 kts | 356° |
| 2026-05-07 22:20 | -33.37209 | -70.80179 | 1563 ft | 14 kts | 356° |
| 2026-05-07 22:20 | -33.37123 | -70.80212 | 1563 ft | 13 kts | 302° |
| 2026-05-07 22:20 | -33.37114 | -70.80315 | 1563 ft | 13 kts | 245° |
| 2026-05-07 22:21 | -33.37180 | -70.80372 | 1563 ft | 12 kts | 183° |
| 2026-05-07 22:21 | -33.37298 | -70.80366 | 1563 ft | 36 kts | 178° |
| 2026-05-07 22:21 | -33.37781 | -70.80342 | 1563 ft | 101 kts | 178° |
| 2026-05-07 22:21 | -33.38622 | -70.80304 | 1563 ft | 154 kts | 178° |
| 2026-05-07 22:22 | -33.39834 | -70.80229 | 1730 ft | 190 kts | 176° |
| 2026-05-07 22:22 | -33.40833 | -70.80184 | 2274 ft | 196 kts | 175° |
| 2026-05-07 22:22 | -33.42022 | -70.80054 | 3014 ft | 200 kts | 174° |
| 2026-05-07 22:22 | -33.43268 | -70.79932 | 4049 ft | 185 kts | 179° |
| 2026-05-07 22:23 | -33.44565 | -70.79966 | 4660 ft | 191 kts | 186° |
| 2026-05-07 22:23 | -33.45952 | -70.80188 | 4936 ft | 211 kts | 191° |
| 2026-05-07 22:23 | -33.47416 | -70.80757 | 5186 ft | 231 kts | 205° |
| 2026-05-07 22:23 | -33.48845 | -70.81762 | 5574 ft | 244 kts | 217° |
| 2026-05-07 22:24 | -33.49955 | -70.83033 | 6160 ft | 246 kts | 230° |
| 2026-05-07 22:24 | -33.50891 | -70.84705 | 6674 ft | 256 kts | 242° |
| 2026-05-07 22:24 | -33.51514 | -70.86772 | 7103 ft | 269 kts | 257° |
| 2026-05-07 22:24 | -33.51705 | -70.89029 | 7719 ft | 276 kts | 271° |
| 2026-05-07 22:25 | -33.51419 | -70.91287 | 8349 ft | 280 kts | 285° |
| 2026-05-07 22:25 | -33.50940 | -70.92748 | 8753 ft | 284 kts | 296° |
| 2026-05-07 22:25 | -33.49801 | -70.94660 | 9419 ft | 287 kts | 313° |
| 2026-05-07 22:25 | -33.48199 | -70.96070 | 10039 ft | 293 kts | 334° |
| 2026-05-07 22:26 | -33.46188 | -70.96695 | 10603 ft | 301 kts | 354° |
| 2026-05-07 22:26 | -33.44046 | -70.96841 | 10931 ft | 316 kts | 352° |
| 2026-05-07 22:26 | -33.41876 | -70.97542 | 11169 ft | 331 kts | 336° |
| 2026-05-07 22:26 | -33.39819 | -70.98911 | 11416 ft | 346 kts | 327° |
| 2026-05-07 22:27 | -33.37659 | -71.00330 | 11722 ft | 361 kts | 333° |
| 2026-05-07 22:27 | -33.35331 | -71.01534 | 12244 ft | 367 kts | 336° |
| 2026-05-07 22:27 | -33.32937 | -71.02693 | 12745 ft | 374 kts | 335° |
| 2026-05-07 22:27 | -33.30518 | -71.03908 | 13271 ft | 380 kts | 334° |
| 2026-05-07 22:28 | -33.28094 | -71.05148 | 13788 ft | 385 kts | 334° |
| 2026-05-07 22:28 | -33.25607 | -71.06422 | 14293 ft | 391 kts | 334° |
| 2026-05-07 22:28 | -33.23086 | -71.07702 | 14801 ft | 396 kts | 333° |
| 2026-05-07 22:28 | -33.20538 | -71.09015 | 15331 ft | 400 kts | 333° |
| 2026-05-07 22:29 | -33.17902 | -71.10186 | 15778 ft | 408 kts | 337° |
| 2026-05-07 22:29 | -33.15178 | -71.11250 | 16230 ft | 414 kts | 338° |
| 2026-05-07 22:29 | -33.12407 | -71.12271 | 16681 ft | 419 kts | 338° |
| 2026-05-07 22:29 | -33.09606 | -71.13326 | 17103 ft | 424 kts | 337° |
| 2026-05-07 22:30 | -33.06895 | -71.14376 | 17486 ft | 429 kts | 337° |
| 2026-05-07 22:30 | -33.04043 | -71.15488 | 17889 ft | 433 kts | 336° |
| 2026-05-07 22:30 | -33.01146 | -71.16595 | 18298 ft | 438 kts | 336° |
| 2026-05-07 22:30 | -32.98240 | -71.17725 | 18753 ft | 441 kts | 336° |
| 2026-05-07 22:31 | -32.95307 | -71.18868 | 19187 ft | 445 kts | 337° |
| 2026-05-07 22:31 | -32.92294 | -71.19822 | 19579 ft | 451 kts | 341° |
| 2026-05-07 22:31 | -32.89235 | -71.20611 | 19951 ft | 456 kts | 343° |
| 2026-05-07 22:31 | -32.86106 | -71.21328 | 20345 ft | 460 kts | 344° |
| 2026-05-07 22:32 | -32.82941 | -71.22036 | 20716 ft | 463 kts | 344° |
| 2026-05-07 22:32 | -32.79763 | -71.22772 | 21091 ft | 466 kts | 343° |
| 2026-05-07 22:32 | -32.76581 | -71.23528 | 21426 ft | 469 kts | 343° |
| 2026-05-07 22:32 | -32.73365 | -71.24298 | 21771 ft | 472 kts | 343° |
| 2026-05-07 22:33 | -32.70136 | -71.25076 | 22097 ft | 475 kts | 343° |
| 2026-05-07 22:33 | -32.66894 | -71.25861 | 22441 ft | 478 kts | 343° |
| 2026-05-07 22:33 | -32.63616 | -71.26656 | 22759 ft | 481 kts | 343° |
| 2026-05-07 22:33 | -32.60335 | -71.27453 | 23077 ft | 483 kts | 343° |
| 2026-05-07 22:34 | -32.58012 | -71.28022 | 23302 ft | 485 kts | 343° |
| 2026-05-07 22:34 | -32.54497 | -71.28879 | 23617 ft | 488 kts | 342° |
| 2026-05-07 22:34 | -32.51167 | -71.29690 | 23913 ft | 490 kts | 343° |
| 2026-05-07 22:34 | -32.47813 | -71.30505 | 24211 ft | 493 kts | 343° |
| 2026-05-07 22:35 | -32.44595 | -71.31286 | 24476 ft | 495 kts | 343° |
| 2026-05-07 22:35 | -32.41201 | -71.32109 | 24724 ft | 498 kts | 343° |
| 2026-05-07 22:35 | -32.37797 | -71.32933 | 25001 ft | 501 kts | 343° |
| 2026-05-07 22:35 | -32.34366 | -71.33764 | 25270 ft | 503 kts | 343° |
| 2026-05-07 22:36 | -32.30918 | -71.34598 | 25502 ft | 506 kts | 343° |
| 2026-05-07 22:36 | -32.27465 | -71.35432 | 25777 ft | 508 kts | 343° |
| 2026-05-07 22:36 | -32.23990 | -71.36271 | 26033 ft | 511 kts | 343° |
| 2026-05-07 22:36 | -32.20494 | -71.37114 | 26289 ft | 513 kts | 342° |
| 2026-05-07 22:37 | -32.16980 | -71.37961 | 26548 ft | 515 kts | 343° |
| 2026-05-07 22:37 | -32.13458 | -71.38810 | 26764 ft | 518 kts | 343° |
| 2026-05-07 22:37 | -32.09923 | -71.39661 | 26997 ft | 520 kts | 343° |
| 2026-05-07 22:37 | -32.06372 | -71.40515 | 27245 ft | 522 kts | 343° |
| 2026-05-07 22:38 | -32.02790 | -71.41378 | 27469 ft | 524 kts | 342° |
| 2026-05-07 22:38 | -31.99208 | -71.42242 | 27695 ft | 526 kts | 342° |
| 2026-05-07 22:38 | -31.95617 | -71.43104 | 27976 ft | 527 kts | 343° |
| 2026-05-07 22:38 | -31.92056 | -71.43957 | 28148 ft | 530 kts | 343° |
| 2026-05-07 22:39 | -31.88439 | -71.44822 | 28360 ft | 532 kts | 343° |
| 2026-05-07 22:39 | -31.84798 | -71.45691 | 28584 ft | 533 kts | 343° |
| 2026-05-07 22:39 | -31.81141 | -71.46565 | 28781 ft | 535 kts | 343° |
| 2026-05-07 22:39 | -31.77483 | -71.47439 | 29036 ft | 536 kts | 343° |
| 2026-05-07 22:40 | -31.74059 | -71.48256 | 29315 ft | 536 kts | 343° |
| 2026-05-07 22:40 | -31.70397 | -71.49130 | 29545 ft | 537 kts | 343° |
| 2026-05-07 22:40 | -31.66743 | -71.49999 | 29784 ft | 538 kts | 343° |
| 2026-05-07 22:40 | -31.63069 | -71.50873 | 30072 ft | 537 kts | 343° |
| 2026-05-07 22:41 | -31.59411 | -71.51743 | 30392 ft | 536 kts | 343° |
| 2026-05-07 22:41 | -31.55744 | -71.52614 | 30629 ft | 537 kts | 343° |
| 2026-05-07 22:41 | -31.52071 | -71.53486 | 30914 ft | 537 kts | 343° |
| 2026-05-07 22:41 | -31.48412 | -71.54354 | 31188 ft | 537 kts | 343° |
| 2026-05-07 22:42 | -31.44796 | -71.55212 | 31420 ft | 537 kts | 343° |
| 2026-05-07 22:42 | -31.41132 | -71.56082 | 31702 ft | 536 kts | 343° |
| 2026-05-07 22:42 | -31.37465 | -71.56961 | 31992 ft | 536 kts | 343° |
| 2026-05-07 22:42 | -31.34801 | -71.57594 | 32144 ft | 536 kts | 343° |
| 2026-05-07 22:43 | -31.31123 | -71.58466 | 32329 ft | 538 kts | 343° |
| 2026-05-07 22:43 | -31.27506 | -71.59320 | 32611 ft | 537 kts | 343° |
| 2026-05-07 22:43 | -31.23850 | -71.60183 | 32862 ft | 536 kts | 343° |
| 2026-05-07 22:43 | -31.20177 | -71.61049 | 33060 ft | 537 kts | 343° |
| 2026-05-07 22:44 | -31.16511 | -71.61913 | 33330 ft | 536 kts | 343° |
| 2026-05-07 22:44 | -31.12838 | -71.62778 | 33571 ft | 536 kts | 343° |
| 2026-05-07 22:44 | -31.09186 | -71.63639 | 33797 ft | 536 kts | 344° |
| 2026-05-07 22:44 | -31.05513 | -71.64497 | 33941 ft | 538 kts | 344° |
| 2026-05-07 22:45 | -31.01904 | -71.65339 | 34119 ft | 539 kts | 344° |
| 2026-05-07 22:45 | -30.94559 | -71.67053 | 34126 ft | 536 kts | 344° |
| 2026-05-07 22:46 | -30.87310 | -71.68743 | 34127 ft | 531 kts | 344° |
| 2026-05-07 22:46 | -30.80060 | -71.70431 | 34122 ft | 531 kts | 344° |
| 2026-05-07 22:47 | -30.72812 | -71.72128 | 34117 ft | 530 kts | 344° |
| 2026-05-07 22:47 | -30.66787 | -71.73533 | 34113 ft | 530 kts | 345° |
| 2026-05-07 22:48 | -30.59542 | -71.75212 | 34108 ft | 530 kts | 345° |
| 2026-05-07 22:48 | -30.51139 | -71.77157 | 34105 ft | 529 kts | 345° |
| 2026-05-07 22:49 | -30.45130 | -71.78546 | 34102 ft | 529 kts | 345° |
| 2026-05-07 22:49 | -30.37905 | -71.80219 | 34098 ft | 528 kts | 345° |
| 2026-05-07 22:50 | -30.30698 | -71.81886 | 34097 ft | 528 kts | 345° |
| 2026-05-07 22:50 | -30.23559 | -71.83535 | 34095 ft | 527 kts | 345° |
| 2026-05-07 22:51 | -30.16360 | -71.85196 | 34094 ft | 528 kts | 345° |
| 2026-05-07 22:51 | -30.09162 | -71.86858 | 34093 ft | 527 kts | 345° |
| 2026-05-07 22:52 | -30.01965 | -71.88521 | 34093 ft | 527 kts | 345° |
| 2026-05-07 22:52 | -29.94825 | -71.90165 | 34092 ft | 527 kts | 345° |
| 2026-05-07 22:53 | -29.87623 | -71.91825 | 34087 ft | 527 kts | 345° |
| 2026-05-07 22:53 | -29.80432 | -71.93474 | 34083 ft | 527 kts | 345° |
| 2026-05-07 22:54 | -29.73228 | -71.95121 | 34082 ft | 527 kts | 345° |
| 2026-05-07 22:54 | -29.66085 | -71.96753 | 34082 ft | 527 kts | 345° |
| 2026-05-07 22:55 | -29.58885 | -71.98395 | 34082 ft | 527 kts | 345° |
| 2026-05-07 22:55 | -29.51826 | -71.99995 | 34080 ft | 526 kts | 345° |
| 2026-05-07 22:56 | -29.44665 | -72.01618 | 34081 ft | 523 kts | 345° |
| 2026-05-07 22:56 | -29.37531 | -72.03232 | 34080 ft | 522 kts | 345° |
| 2026-05-07 22:57 | -29.30440 | -72.04834 | 34080 ft | 521 kts | 346° |
| 2026-05-07 22:57 | -29.23317 | -72.06450 | 34079 ft | 520 kts | 346° |
| 2026-05-07 22:58 | -29.16216 | -72.08056 | 34078 ft | 519 kts | 346° |
| 2026-05-07 22:58 | -29.09127 | -72.09655 | 34077 ft | 518 kts | 346° |
| 2026-05-07 22:59 | -29.02054 | -72.11248 | 34076 ft | 518 kts | 346° |
| 2026-05-07 22:59 | -28.94985 | -72.12837 | 34074 ft | 517 kts | 346° |
| 2026-05-07 23:00 | -28.87926 | -72.14422 | 34074 ft | 516 kts | 346° |
| 2026-05-07 23:00 | -28.81017 | -72.15972 | 34072 ft | 516 kts | 346° |
| 2026-05-07 23:01 | -28.73963 | -72.17556 | 34071 ft | 515 kts | 346° |
| 2026-05-07 23:01 | -28.66913 | -72.19131 | 34069 ft | 515 kts | 346° |
| 2026-05-07 23:02 | -28.59920 | -72.20690 | 34068 ft | 514 kts | 346° |
| 2026-05-07 23:02 | -28.52894 | -72.22254 | 34066 ft | 514 kts | 346° |
| 2026-05-07 23:03 | -28.45871 | -72.23820 | 34064 ft | 514 kts | 346° |
| 2026-05-07 23:03 | -28.38826 | -72.25387 | 34063 ft | 515 kts | 346° |
| 2026-05-07 23:04 | -28.31801 | -72.26948 | 34061 ft | 515 kts | 346° |
| 2026-05-07 23:04 | -28.24811 | -72.28500 | 34060 ft | 515 kts | 346° |
| 2026-05-07 23:05 | -28.17826 | -72.30048 | 34058 ft | 515 kts | 346° |
| 2026-05-07 23:05 | -28.10883 | -72.31594 | 34057 ft | 515 kts | 346° |
| 2026-05-07 23:06 | -28.03844 | -72.33155 | 34055 ft | 515 kts | 346° |
| 2026-05-07 23:06 | -27.96813 | -72.34711 | 34054 ft | 514 kts | 346° |
| 2026-05-07 23:07 | -27.89799 | -72.36260 | 34053 ft | 512 kts | 346° |
| 2026-05-07 23:07 | -27.82836 | -72.37799 | 34052 ft | 513 kts | 346° |
| 2026-05-07 23:08 | -27.75819 | -72.39348 | 34051 ft | 512 kts | 346° |
| 2026-05-07 23:08 | -27.68830 | -72.40884 | 34050 ft | 512 kts | 347° |
| 2026-05-07 23:09 | -27.61827 | -72.42420 | 34050 ft | 511 kts | 347° |
| 2026-05-07 23:09 | -27.54898 | -72.43939 | 34049 ft | 510 kts | 347° |
| 2026-05-07 23:10 | -27.48205 | -72.45804 | 34049 ft | 507 kts | 340° |
| 2026-05-07 23:10 | -27.41370 | -72.48231 | 34049 ft | 506 kts | 339° |
| 2026-05-07 23:11 | -27.34647 | -72.50599 | 34049 ft | 505 kts | 340° |
| 2026-05-07 23:11 | -27.27918 | -72.52928 | 34049 ft | 505 kts | 340° |
| 2026-05-07 23:12 | -27.21243 | -72.55223 | 34038 ft | 504 kts | 340° |
| 2026-05-07 23:12 | -27.14543 | -72.57532 | 34035 ft | 503 kts | 340° |
| 2026-05-07 23:13 | -27.07840 | -72.59832 | 34034 ft | 503 kts | 340° |
| 2026-05-07 23:13 | -27.01149 | -72.62122 | 34035 ft | 502 kts | 340° |
| 2026-05-07 23:14 | -26.94492 | -72.64395 | 34035 ft | 501 kts | 340° |
| 2026-05-07 23:14 | -26.87817 | -72.66672 | 34035 ft | 501 kts | 340° |
| 2026-05-07 23:15 | -26.81457 | -72.68838 | 34035 ft | 500 kts | 340° |
| 2026-05-07 23:15 | -26.74564 | -72.71182 | 34036 ft | 500 kts | 340° |
| 2026-05-07 23:16 | -26.67901 | -72.73446 | 34036 ft | 499 kts | 340° |
| 2026-05-07 23:16 | -26.61294 | -72.75688 | 34036 ft | 499 kts | 340° |
| 2026-05-07 23:17 | -26.54643 | -72.77941 | 34035 ft | 498 kts | 340° |
| 2026-05-07 23:17 | -26.47994 | -72.80192 | 34037 ft | 499 kts | 340° |
| 2026-05-07 23:18 | -26.41344 | -72.82440 | 34037 ft | 498 kts | 341° |
| 2026-05-07 23:18 | -26.34712 | -72.84680 | 34037 ft | 498 kts | 341° |
| 2026-05-07 23:19 | -26.28123 | -72.86902 | 34037 ft | 498 kts | 341° |
| 2026-05-07 23:19 | -26.21478 | -72.89140 | 34037 ft | 498 kts | 341° |
| 2026-05-07 23:20 | -26.14909 | -72.91351 | 34037 ft | 497 kts | 341° |
| 2026-05-07 23:20 | -26.08279 | -72.93579 | 34038 ft | 497 kts | 341° |
| 2026-05-07 23:21 | -26.01649 | -72.95804 | 34038 ft | 498 kts | 341° |
| 2026-05-07 23:21 | -25.95071 | -72.98010 | 34038 ft | 496 kts | 341° |
| 2026-05-07 23:22 | -25.88494 | -73.00212 | 34038 ft | 492 kts | 341° |
| 2026-05-07 23:22 | -25.81910 | -73.02414 | 34038 ft | 493 kts | 341° |
| 2026-05-07 23:23 | -25.75338 | -73.04610 | 34035 ft | 493 kts | 341° |
| 2026-05-07 23:23 | -25.68818 | -73.06786 | 34033 ft | 492 kts | 341° |
| 2026-05-07 23:24 | -25.62262 | -73.08971 | 34031 ft | 492 kts | 341° |
| 2026-05-07 23:24 | -25.55685 | -73.11161 | 34030 ft | 492 kts | 341° |
| 2026-05-07 23:25 | -25.49227 | -73.13308 | 34030 ft | 492 kts | 341° |
| 2026-05-07 23:25 | -25.42660 | -73.15490 | 34030 ft | 491 kts | 341° |
| 2026-05-07 23:26 | -25.36162 | -73.17646 | 34030 ft | 491 kts | 342° |
| 2026-05-07 23:26 | -25.29605 | -73.19820 | 34030 ft | 491 kts | 342° |
| 2026-05-07 23:27 | -25.19782 | -73.23071 | 34030 ft | 490 kts | 342° |
| 2026-05-07 23:27 | -25.13292 | -73.25216 | 34031 ft | 489 kts | 342° |
| 2026-05-07 23:28 | -25.06766 | -73.27370 | 34031 ft | 489 kts | 342° |
| 2026-05-07 23:28 | -25.00249 | -73.29519 | 34031 ft | 488 kts | 342° |
| 2026-05-07 23:29 | -24.93741 | -73.31663 | 34031 ft | 487 kts | 342° |
| 2026-05-07 23:29 | -24.87267 | -73.33794 | 34031 ft | 487 kts | 342° |
| 2026-05-07 23:30 | -24.80858 | -73.35900 | 34025 ft | 487 kts | 342° |
| 2026-05-07 23:30 | -24.74372 | -73.38030 | 34011 ft | 486 kts | 342° |
| 2026-05-07 23:31 | -24.67900 | -73.40153 | 34006 ft | 485 kts | 342° |
| 2026-05-07 23:31 | -24.61413 | -73.42278 | 34005 ft | 485 kts | 342° |
| 2026-05-07 23:32 | -24.54959 | -73.44390 | 34005 ft | 484 kts | 342° |
| 2026-05-07 23:32 | -24.48494 | -73.46504 | 34003 ft | 484 kts | 342° |
| 2026-05-07 23:33 | -24.42044 | -73.48611 | 34004 ft | 483 kts | 342° |
| 2026-05-07 23:33 | -24.35640 | -73.50700 | 34004 ft | 483 kts | 342° |
| 2026-05-07 23:34 | -24.29202 | -73.52803 | 34003 ft | 482 kts | 342° |
| 2026-05-07 23:34 | -24.23861 | -73.54544 | 34004 ft | 482 kts | 342° |
| 2026-05-07 23:35 | -24.17488 | -73.56615 | 34003 ft | 481 kts | 342° |
| 2026-05-07 23:35 | -24.11073 | -73.58697 | 34003 ft | 481 kts | 342° |
| 2026-05-07 23:36 | -24.04640 | -73.60784 | 34003 ft | 481 kts | 342° |
| 2026-05-07 23:36 | -23.98235 | -73.62861 | 34003 ft | 480 kts | 342° |
| 2026-05-07 23:37 | -23.91834 | -73.64933 | 34002 ft | 479 kts | 342° |
| 2026-05-07 23:37 | -23.85483 | -73.66988 | 34002 ft | 479 kts | 342° |
| 2026-05-07 23:38 | -23.79088 | -73.69055 | 34002 ft | 478 kts | 342° |
| 2026-05-07 23:38 | -23.72707 | -73.71114 | 34001 ft | 477 kts | 342° |
| 2026-05-07 23:39 | -23.66333 | -73.73175 | 33999 ft | 477 kts | 342° |
| 2026-05-07 23:39 | -23.59963 | -73.75238 | 33998 ft | 477 kts | 342° |
| 2026-05-07 23:40 | -23.53690 | -73.77264 | 33998 ft | 476 kts | 342° |
| 2026-05-07 23:40 | -23.47370 | -73.79301 | 33998 ft | 475 kts | 341° |
| 2026-05-07 23:41 | -23.41027 | -73.81342 | 33989 ft | 474 kts | 341° |
| 2026-05-07 23:41 | -23.34694 | -73.83378 | 33980 ft | 474 kts | 341° |
| 2026-05-07 23:42 | -23.28375 | -73.85408 | 33980 ft | 472 kts | 341° |
| 2026-05-07 23:42 | -23.22085 | -73.87426 | 33979 ft | 471 kts | 341° |
| 2026-05-07 23:43 | -23.15836 | -73.89429 | 33979 ft | 469 kts | 340° |
| 2026-05-07 23:43 | -23.09569 | -73.91436 | 33979 ft | 468 kts | 340° |
| 2026-05-07 23:44 | -23.03329 | -73.93432 | 33979 ft | 466 kts | 340° |
| 2026-05-07 23:44 | -22.97113 | -73.95419 | 33978 ft | 465 kts | 339° |
| 2026-05-07 23:45 | -22.91016 | -73.97366 | 33978 ft | 463 kts | 339° |
| 2026-05-07 23:45 | -22.84845 | -73.99335 | 33978 ft | 461 kts | 339° |
| 2026-05-07 23:46 | -22.78698 | -74.01295 | 33977 ft | 459 kts | 339° |
| 2026-05-07 23:46 | -22.72572 | -74.03245 | 33977 ft | 458 kts | 339° |
| 2026-05-07 23:47 | -22.66501 | -74.05176 | 33977 ft | 456 kts | 339° |
| 2026-05-07 23:47 | -22.60414 | -74.07110 | 33977 ft | 455 kts | 338° |
| 2026-05-07 23:48 | -22.54342 | -74.09038 | 33977 ft | 454 kts | 338° |
| 2026-05-07 23:48 | -22.48288 | -74.10959 | 33976 ft | 453 kts | 338° |
| 2026-05-07 23:49 | -22.42233 | -74.12878 | 33976 ft | 452 kts | 338° |
| 2026-05-07 23:49 | -22.36237 | -74.14777 | 33979 ft | 451 kts | 338° |
| 2026-05-07 23:50 | -22.30271 | -74.16662 | 33975 ft | 454 kts | 338° |
| 2026-05-07 23:50 | -22.24188 | -74.18578 | 33975 ft | 456 kts | 337° |
| 2026-05-07 23:51 | -22.18124 | -74.20498 | 33974 ft | 451 kts | 337° |
| 2026-05-07 23:51 | -22.12082 | -74.22408 | 33973 ft | 453 kts | 338° |
| 2026-05-07 23:52 | -22.06077 | -74.24300 | 33974 ft | 452 kts | 337° |
| 2026-05-07 23:52 | -22.00019 | -74.26211 | 33972 ft | 454 kts | 337° |
| 2026-05-07 23:53 | -21.93948 | -74.28119 | 33973 ft | 454 kts | 337° |
| 2026-05-07 23:53 | -21.87908 | -74.30017 | 33972 ft | 451 kts | 337° |
| 2026-05-07 23:54 | -21.81862 | -74.31919 | 33974 ft | 455 kts | 338° |
| 2026-05-07 23:54 | -21.75835 | -74.33811 | 33972 ft | 453 kts | 337° |
| 2026-05-07 23:55 | -21.69890 | -74.35675 | 33972 ft | 448 kts | 337° |
| 2026-05-07 23:55 | -21.63906 | -74.37550 | 33972 ft | 448 kts | 337° |
| 2026-05-07 23:56 | -21.57906 | -74.39429 | 33972 ft | 448 kts | 337° |
| 2026-05-07 23:56 | -21.51964 | -74.41287 | 33971 ft | 448 kts | 337° |
| 2026-05-07 23:57 | -21.45979 | -74.43161 | 33971 ft | 448 kts | 337° |
| 2026-05-07 23:57 | -21.39990 | -74.45033 | 33971 ft | 448 kts | 337° |
| 2026-05-07 23:58 | -21.33997 | -74.46902 | 33970 ft | 448 kts | 338° |
| 2026-05-07 23:58 | -21.28016 | -74.48765 | 33970 ft | 448 kts | 338° |
| 2026-05-07 23:59 | -21.22025 | -74.50629 | 33970 ft | 447 kts | 338° |
| 2026-05-07 23:59 | -21.16052 | -74.52488 | 33969 ft | 447 kts | 338° |
| 2026-05-08 00:00 | -21.10154 | -74.54319 | 33969 ft | 447 kts | 338° |
| 2026-05-08 00:00 | -21.04189 | -74.56169 | 33969 ft | 447 kts | 338° |
| 2026-05-08 00:01 | -20.98204 | -74.58023 | 33968 ft | 446 kts | 338° |
| 2026-05-08 00:01 | -20.92236 | -74.59872 | 33968 ft | 447 kts | 338° |
| 2026-05-08 00:02 | -20.86256 | -74.61723 | 33968 ft | 447 kts | 338° |
| 2026-05-08 00:02 | -20.80287 | -74.63576 | 33967 ft | 447 kts | 338° |
| 2026-05-08 00:03 | -20.74341 | -74.65420 | 33967 ft | 446 kts | 338° |
| 2026-05-08 00:03 | -20.68389 | -74.67262 | 33963 ft | 446 kts | 338° |
| 2026-05-08 00:04 | -20.62416 | -74.69107 | 33958 ft | 446 kts | 338° |
| 2026-05-08 00:04 | -20.56445 | -74.70951 | 33960 ft | 446 kts | 338° |
| 2026-05-08 00:05 | -20.50579 | -74.72760 | 33961 ft | 446 kts | 338° |
| 2026-05-08 00:05 | -20.44596 | -74.74604 | 33961 ft | 446 kts | 338° |
| 2026-05-08 00:06 | -20.38639 | -74.76439 | 33960 ft | 445 kts | 338° |
| 2026-05-08 00:06 | -20.32691 | -74.78270 | 33961 ft | 445 kts | 338° |
| 2026-05-08 00:07 | -20.26778 | -74.80087 | 33960 ft | 445 kts | 338° |
| 2026-05-08 00:07 | -20.20818 | -74.81917 | 33959 ft | 445 kts | 338° |
| 2026-05-08 00:08 | -20.14856 | -74.83748 | 33959 ft | 445 kts | 338° |
| 2026-05-08 00:08 | -20.08929 | -74.85565 | 33959 ft | 445 kts | 338° |
| 2026-05-08 00:09 | -20.02979 | -74.87389 | 33958 ft | 445 kts | 338° |
| 2026-05-08 00:09 | -19.97023 | -74.89213 | 33958 ft | 444 kts | 338° |
| 2026-05-08 00:10 | -19.91160 | -74.91007 | 33957 ft | 444 kts | 338° |
| 2026-05-08 00:10 | -19.85214 | -74.92824 | 33957 ft | 444 kts | 338° |
| 2026-05-08 00:11 | -19.79319 | -74.94626 | 33957 ft | 444 kts | 338° |
| 2026-05-08 00:11 | -19.73381 | -74.96438 | 33956 ft | 444 kts | 338° |
| 2026-05-08 00:12 | -19.67433 | -74.98252 | 33956 ft | 444 kts | 338° |
| 2026-05-08 00:12 | -19.61497 | -75.00062 | 33956 ft | 444 kts | 338° |
| 2026-05-08 00:13 | -19.55559 | -75.01870 | 33956 ft | 444 kts | 338° |
| 2026-05-08 00:13 | -19.49667 | -75.03669 | 33955 ft | 442 kts | 339° |
| 2026-05-08 00:14 | -19.43748 | -75.05466 | 33955 ft | 442 kts | 340° |
| 2026-05-08 00:14 | -19.37822 | -75.07266 | 33954 ft | 442 kts | 339° |
| 2026-05-08 00:15 | -19.32060 | -75.09014 | 33955 ft | 442 kts | 340° |
| 2026-05-08 00:15 | -19.26137 | -75.10811 | 33954 ft | 442 kts | 340° |
| 2026-05-08 00:16 | -19.20221 | -75.12605 | 33954 ft | 442 kts | 340° |
| 2026-05-08 00:16 | -19.14298 | -75.14399 | 33954 ft | 442 kts | 340° |
| 2026-05-08 00:17 | -19.08383 | -75.16190 | 33953 ft | 442 kts | 340° |
| 2026-05-08 00:17 | -19.02455 | -75.17984 | 33953 ft | 442 kts | 340° |
| 2026-05-08 00:18 | -18.96573 | -75.19762 | 33953 ft | 442 kts | 340° |
| 2026-05-08 00:18 | -18.90652 | -75.21550 | 33953 ft | 442 kts | 340° |
| 2026-05-08 00:19 | -18.84723 | -75.23340 | 33952 ft | 442 kts | 340° |
| 2026-05-08 00:19 | -18.78802 | -75.25126 | 33952 ft | 442 kts | 340° |
| 2026-05-08 00:20 | -18.72979 | -75.26881 | 33952 ft | 442 kts | 340° |
| 2026-05-08 00:20 | -18.68056 | -75.28364 | 33952 ft | 442 kts | 340° |
| 2026-05-08 00:21 | -18.61176 | -75.30439 | 33951 ft | 442 kts | 340° |
| 2026-05-08 00:21 | -18.56256 | -75.31920 | 33951 ft | 442 kts | 340° |
| 2026-05-08 00:22 | -18.50315 | -75.33704 | 33951 ft | 442 kts | 340° |
| 2026-05-08 00:22 | -18.44396 | -75.35481 | 33951 ft | 442 kts | 340° |
| 2026-05-08 00:23 | -18.38512 | -75.37246 | 33950 ft | 442 kts | 340° |
| 2026-05-08 00:23 | -18.32583 | -75.39008 | 33952 ft | 443 kts | 341° |
| 2026-05-08 00:24 | -18.26625 | -75.40682 | 33952 ft | 443 kts | 341° |
| 2026-05-08 00:24 | -18.20667 | -75.42360 | 33952 ft | 443 kts | 341° |
| 2026-05-08 00:25 | -18.14813 | -75.44011 | 33952 ft | 443 kts | 341° |
| 2026-05-08 00:25 | -18.08849 | -75.45695 | 33952 ft | 443 kts | 341° |
| 2026-05-08 00:26 | -18.02889 | -75.47375 | 33952 ft | 442 kts | 340° |
| 2026-05-08 00:26 | -17.96986 | -75.49047 | 33952 ft | 443 kts | 340° |
| 2026-05-08 00:27 | -17.91023 | -75.50732 | 33951 ft | 443 kts | 341° |
| 2026-05-08 00:27 | -17.85078 | -75.52410 | 33951 ft | 443 kts | 341° |
| 2026-05-08 00:28 | -17.79120 | -75.54090 | 33951 ft | 443 kts | 341° |
| 2026-05-08 00:28 | -17.73170 | -75.55766 | 33950 ft | 443 kts | 341° |
| 2026-05-08 00:29 | -17.67220 | -75.57441 | 33999 ft | 442 kts | 341° |
| 2026-05-08 00:29 | -17.61279 | -75.59112 | 34043 ft | 442 kts | 341° |
| 2026-05-08 00:30 | -17.55431 | -75.60755 | 34061 ft | 442 kts | 341° |
| 2026-05-08 00:30 | -17.49499 | -75.62422 | 34068 ft | 442 kts | 341° |
| 2026-05-08 00:31 | -17.43551 | -75.64091 | 34067 ft | 442 kts | 341° |
| 2026-05-08 00:31 | -17.37608 | -75.65758 | 34066 ft | 442 kts | 341° |
| 2026-05-08 00:32 | -17.31672 | -75.67422 | 34065 ft | 441 kts | 341° |
| 2026-05-08 00:32 | -17.25741 | -75.69083 | 34063 ft | 441 kts | 341° |
| 2026-05-08 00:33 | -17.19811 | -75.70743 | 34065 ft | 441 kts | 341° |
| 2026-05-08 00:33 | -17.13912 | -75.72394 | 34097 ft | 440 kts | 341° |
| 2026-05-08 00:34 | -17.07988 | -75.74050 | 34112 ft | 440 kts | 341° |
| 2026-05-08 00:34 | -17.02067 | -75.75704 | 34117 ft | 440 kts | 341° |
| 2026-05-08 00:35 | -16.96239 | -75.77331 | 34118 ft | 440 kts | 341° |
| 2026-05-08 00:35 | -16.90327 | -75.78980 | 34118 ft | 440 kts | 341° |
| 2026-05-08 00:36 | -16.84405 | -75.80633 | 34118 ft | 440 kts | 341° |
| 2026-05-08 00:36 | -16.78500 | -75.82278 | 34118 ft | 439 kts | 341° |
| 2026-05-08 00:37 | -16.72591 | -75.83922 | 34117 ft | 439 kts | 341° |
| 2026-05-08 00:38 | -16.63761 | -75.86379 | 34116 ft | 439 kts | 341° |
| 2026-05-08 00:38 | -16.57862 | -75.88019 | 34115 ft | 438 kts | 341° |
| 2026-05-08 00:39 | -16.51963 | -75.89658 | 34108 ft | 439 kts | 341° |
| 2026-05-08 00:39 | -16.46053 | -75.91299 | 34065 ft | 439 kts | 341° |
| 2026-05-08 00:40 | -16.40229 | -75.92915 | 34046 ft | 439 kts | 341° |
| 2026-05-08 00:40 | -16.34382 | -75.94537 | 34052 ft | 438 kts | 341° |
| 2026-05-08 00:41 | -16.28481 | -75.96172 | 34091 ft | 438 kts | 341° |
| 2026-05-08 00:41 | -16.22597 | -75.97802 | 34105 ft | 438 kts | 341° |
| 2026-05-08 00:42 | -16.16698 | -75.99435 | 34106 ft | 438 kts | 341° |
| 2026-05-08 00:42 | -16.10811 | -76.01064 | 34103 ft | 438 kts | 341° |
| 2026-05-08 00:43 | -16.04924 | -76.02692 | 34099 ft | 438 kts | 341° |
| 2026-05-08 00:43 | -15.99063 | -76.04311 | 34095 ft | 438 kts | 341° |
| 2026-05-08 00:44 | -15.93165 | -76.05939 | 34091 ft | 438 kts | 341° |
| 2026-05-08 00:44 | -15.87279 | -76.07564 | 34087 ft | 438 kts | 341° |
| 2026-05-08 00:45 | -15.81557 | -76.09142 | 34083 ft | 438 kts | 341° |
| 2026-05-08 00:45 | -15.75551 | -76.10797 | 34079 ft | 438 kts | 341° |
| 2026-05-08 00:46 | -15.69659 | -76.12420 | 34074 ft | 438 kts | 341° |
| 2026-05-08 00:46 | -15.63789 | -76.14037 | 34070 ft | 438 kts | 341° |
| 2026-05-08 00:47 | -15.57890 | -76.15660 | 34065 ft | 439 kts | 341° |
| 2026-05-08 00:47 | -15.51984 | -76.17284 | 34061 ft | 439 kts | 341° |
| 2026-05-08 00:48 | -15.46074 | -76.18908 | 34056 ft | 439 kts | 341° |
| 2026-05-08 00:48 | -15.40165 | -76.20531 | 34051 ft | 439 kts | 341° |
| 2026-05-08 00:49 | -15.34254 | -76.22153 | 34044 ft | 439 kts | 341° |
| 2026-05-08 00:49 | -15.28348 | -76.23774 | 34002 ft | 439 kts | 341° |
| 2026-05-08 00:50 | -15.22533 | -76.25368 | 33980 ft | 439 kts | 341° |
| 2026-05-08 00:50 | -15.16625 | -76.26987 | 33969 ft | 439 kts | 341° |
| 2026-05-08 00:51 | -15.10703 | -76.28609 | 33964 ft | 440 kts | 341° |
| 2026-05-08 00:51 | -15.04788 | -76.30229 | 33962 ft | 440 kts | 342° |
| 2026-05-08 00:52 | -14.98863 | -76.31849 | 33959 ft | 440 kts | 342° |
| 2026-05-08 00:52 | -14.92938 | -76.33468 | 33957 ft | 441 kts | 342° |
| 2026-05-08 00:53 | -14.87009 | -76.35088 | 33955 ft | 440 kts | 342° |
| 2026-05-08 00:53 | -14.81110 | -76.36699 | 33953 ft | 441 kts | 342° |
| 2026-05-08 00:54 | -14.75176 | -76.38319 | 33951 ft | 440 kts | 342° |
| 2026-05-08 00:54 | -14.69247 | -76.39938 | 33950 ft | 441 kts | 342° |
| 2026-05-08 00:55 | -14.63421 | -76.41524 | 33948 ft | 441 kts | 342° |
| 2026-05-08 00:55 | -14.57488 | -76.43143 | 33946 ft | 441 kts | 342° |
| 2026-05-08 00:56 | -14.51551 | -76.44763 | 33945 ft | 441 kts | 342° |
| 2026-05-08 00:56 | -14.45610 | -76.46378 | 33944 ft | 442 kts | 342° |
| 2026-05-08 00:57 | -14.39695 | -76.47986 | 33943 ft | 441 kts | 342° |
| 2026-05-08 00:57 | -14.33748 | -76.49602 | 33941 ft | 441 kts | 342° |
| 2026-05-08 00:58 | -14.27805 | -76.51217 | 33941 ft | 441 kts | 342° |
| 2026-05-08 00:58 | -14.21860 | -76.52811 | 33940 ft | 442 kts | 342° |
| 2026-05-08 00:59 | -14.15900 | -76.54403 | 33939 ft | 442 kts | 342° |
| 2026-05-08 00:59 | -14.09976 | -76.55986 | 33938 ft | 442 kts | 342° |
| 2026-05-08 01:00 | -14.04071 | -76.57562 | 33938 ft | 441 kts | 342° |
| 2026-05-08 01:00 | -13.98127 | -76.59149 | 33938 ft | 442 kts | 342° |
| 2026-05-08 01:01 | -13.92161 | -76.60744 | 33937 ft | 443 kts | 342° |
| 2026-05-08 01:01 | -13.86199 | -76.62339 | 33937 ft | 442 kts | 342° |
| 2026-05-08 01:02 | -13.80237 | -76.63931 | 33937 ft | 442 kts | 342° |
| 2026-05-08 01:02 | -13.74268 | -76.65523 | 33937 ft | 443 kts | 342° |
| 2026-05-08 01:03 | -13.68343 | -76.67103 | 33947 ft | 443 kts | 342° |
| 2026-05-08 01:03 | -13.62363 | -76.68696 | 33955 ft | 443 kts | 343° |
| 2026-05-08 01:04 | -13.56388 | -76.70287 | 33961 ft | 443 kts | 343° |
| 2026-05-08 01:04 | -13.50415 | -76.71877 | 33965 ft | 443 kts | 343° |
| 2026-05-08 01:05 | -13.44513 | -76.73447 | 33970 ft | 443 kts | 343° |
| 2026-05-08 01:05 | -13.38529 | -76.75038 | 33976 ft | 444 kts | 343° |
| 2026-05-08 01:06 | -13.32588 | -76.76616 | 33981 ft | 444 kts | 343° |
| 2026-05-08 01:06 | -13.26602 | -76.78206 | 33988 ft | 444 kts | 343° |
| 2026-05-08 01:07 | -13.20617 | -76.79795 | 33994 ft | 444 kts | 343° |
| 2026-05-08 01:07 | -13.14638 | -76.81381 | 34000 ft | 444 kts | 343° |
| 2026-05-08 01:08 | -13.08681 | -76.82961 | 34006 ft | 444 kts | 343° |
| 2026-05-08 01:08 | -13.02699 | -76.84547 | 34011 ft | 444 kts | 343° |
| 2026-05-08 01:09 | -12.97673 | -76.85878 | 34014 ft | 445 kts | 343° |
| 2026-05-08 01:09 | -12.91708 | -76.87458 | 34017 ft | 445 kts | 343° |
| 2026-05-08 01:10 | -12.85714 | -76.89045 | 34019 ft | 445 kts | 343° |
| 2026-05-08 01:10 | -12.79781 | -76.90614 | 34019 ft | 445 kts | 343° |
| 2026-05-08 01:11 | -12.73780 | -76.92201 | 34018 ft | 445 kts | 343° |
| 2026-05-08 01:11 | -12.67781 | -76.93787 | 34015 ft | 445 kts | 343° |
| 2026-05-08 01:12 | -12.61824 | -76.95361 | 34011 ft | 445 kts | 343° |
| 2026-05-08 01:12 | -12.55818 | -76.96947 | 34006 ft | 445 kts | 343° |
| 2026-05-08 01:13 | -12.49813 | -76.98532 | 34001 ft | 445 kts | 343° |
| 2026-05-08 01:13 | -12.43801 | -77.00117 | 33995 ft | 445 kts | 343° |
| 2026-05-08 01:14 | -12.37799 | -77.01700 | 33989 ft | 445 kts | 343° |
| 2026-05-08 01:14 | -12.31841 | -77.03274 | 33982 ft | 445 kts | 343° |
| 2026-05-08 01:15 | -12.25833 | -77.04856 | 33977 ft | 445 kts | 343° |
| 2026-05-08 01:15 | -12.19934 | -77.06409 | 33972 ft | 445 kts | 343° |
| 2026-05-08 01:16 | -12.13926 | -77.07989 | 33968 ft | 445 kts | 343° |
| 2026-05-08 01:16 | -12.07920 | -77.09568 | 33965 ft | 445 kts | 343° |
| 2026-05-08 01:17 | -12.02105 | -77.11558 | 33965 ft | 442 kts | 334° |
| 2026-05-08 01:17 | -11.96554 | -77.14242 | 33965 ft | 442 kts | 331° |
| 2026-05-08 01:18 | -11.91001 | -77.17001 | 33966 ft | 443 kts | 331° |
| 2026-05-08 01:18 | -11.85447 | -77.19747 | 33969 ft | 443 kts | 332° |
| 2026-05-08 01:19 | -11.79898 | -77.22483 | 33972 ft | 443 kts | 332° |
| 2026-05-08 01:19 | -11.74339 | -77.25222 | 33971 ft | 443 kts | 331° |
| 2026-05-08 01:20 | -11.68795 | -77.27959 | 33966 ft | 442 kts | 331° |
| 2026-05-08 01:20 | -11.63357 | -77.30640 | 33967 ft | 442 kts | 331° |
| 2026-05-08 01:21 | -11.57813 | -77.33370 | 33967 ft | 442 kts | 331° |
| 2026-05-08 01:21 | -11.52259 | -77.36107 | 33968 ft | 442 kts | 331° |
| 2026-05-08 01:22 | -11.46713 | -77.38837 | 33969 ft | 443 kts | 332° |
| 2026-05-08 01:22 | -11.41153 | -77.41571 | 33970 ft | 443 kts | 331° |
| 2026-05-08 01:23 | -11.35609 | -77.44294 | 33969 ft | 442 kts | 331° |
| 2026-05-08 01:23 | -11.30088 | -77.47005 | 33971 ft | 443 kts | 331° |
| 2026-05-08 01:24 | -11.24539 | -77.49729 | 33972 ft | 443 kts | 331° |
| 2026-05-08 01:24 | -11.18984 | -77.52458 | 33973 ft | 443 kts | 331° |
| 2026-05-08 01:25 | -11.13452 | -77.55174 | 33973 ft | 443 kts | 331° |
| 2026-05-08 01:25 | -11.07892 | -77.57905 | 33973 ft | 444 kts | 331° |
| 2026-05-08 01:26 | -11.02353 | -77.60623 | 33974 ft | 444 kts | 331° |
| 2026-05-08 01:26 | -10.96794 | -77.63351 | 33974 ft | 444 kts | 331° |
| 2026-05-08 01:27 | -10.91227 | -77.66085 | 33974 ft | 445 kts | 331° |
| 2026-05-08 01:27 | -10.85652 | -77.68824 | 33973 ft | 445 kts | 330° |
| 2026-05-08 01:28 | -10.80069 | -77.71563 | 33972 ft | 445 kts | 330° |
| 2026-05-08 01:28 | -10.74488 | -77.74298 | 33971 ft | 445 kts | 330° |
| 2026-05-08 01:29 | -10.68897 | -77.77038 | 33970 ft | 445 kts | 330° |
| 2026-05-08 01:29 | -10.63317 | -77.79771 | 33969 ft | 446 kts | 330° |
| 2026-05-08 01:30 | -10.57889 | -77.82429 | 33967 ft | 446 kts | 330° |
| 2026-05-08 01:30 | -10.52222 | -77.85203 | 33965 ft | 446 kts | 330° |
| 2026-05-08 01:31 | -10.46627 | -77.87943 | 33962 ft | 446 kts | 330° |
| 2026-05-08 01:31 | -10.41038 | -77.90678 | 33960 ft | 446 kts | 330° |
| 2026-05-08 01:32 | -10.35432 | -77.93417 | 33957 ft | 446 kts | 330° |
| 2026-05-08 01:32 | -10.29841 | -77.96148 | 33953 ft | 446 kts | 330° |
| 2026-05-08 01:33 | -10.24238 | -77.98883 | 33951 ft | 447 kts | 330° |
| 2026-05-08 01:33 | -10.18294 | -78.00883 | 33947 ft | 455 kts | 345° |
| 2026-05-08 01:34 | -10.12013 | -78.01562 | 33944 ft | 459 kts | 353° |
| 2026-05-08 01:34 | -10.05618 | -78.01843 | 33941 ft | 460 kts | 353° |
| 2026-05-08 01:35 | -9.99488 | -78.02130 | 33922 ft | 459 kts | 353° |
| 2026-05-08 01:35 | -9.92873 | -78.02452 | 33911 ft | 459 kts | 353° |
| 2026-05-08 01:36 | -9.86484 | -78.02769 | 33916 ft | 459 kts | 353° |
| 2026-05-08 01:36 | -9.80103 | -78.03088 | 33920 ft | 459 kts | 353° |
| 2026-05-08 01:37 | -9.73738 | -78.03407 | 33919 ft | 459 kts | 353° |
| 2026-05-08 01:37 | -9.67354 | -78.03727 | 33917 ft | 460 kts | 353° |
| 2026-05-08 01:38 | -9.60940 | -78.04048 | 33916 ft | 460 kts | 353° |
| 2026-05-08 01:38 | -9.54581 | -78.04367 | 33914 ft | 460 kts | 353° |
| 2026-05-08 01:39 | -9.48184 | -78.04687 | 33913 ft | 460 kts | 353° |
| 2026-05-08 01:39 | -9.41781 | -78.05008 | 33910 ft | 460 kts | 353° |
| 2026-05-08 01:40 | -9.35463 | -78.05324 | 33911 ft | 461 kts | 353° |
| 2026-05-08 01:40 | -9.29058 | -78.05644 | 33911 ft | 461 kts | 353° |
| 2026-05-08 01:41 | -9.22692 | -78.05962 | 33910 ft | 461 kts | 353° |
| 2026-05-08 01:41 | -9.16273 | -78.06283 | 33910 ft | 462 kts | 353° |
| 2026-05-08 01:42 | -9.09842 | -78.06604 | 33909 ft | 462 kts | 353° |
| 2026-05-08 01:42 | -9.03411 | -78.06926 | 33904 ft | 462 kts | 353° |
| 2026-05-08 01:43 | -8.97028 | -78.07244 | 33904 ft | 462 kts | 353° |
| 2026-05-08 01:43 | -8.90593 | -78.07565 | 33904 ft | 462 kts | 353° |
| 2026-05-08 01:44 | -8.84160 | -78.07886 | 33904 ft | 463 kts | 353° |
| 2026-05-08 01:44 | -8.77713 | -78.08208 | 33904 ft | 463 kts | 353° |
| 2026-05-08 01:45 | -8.71340 | -78.08525 | 33904 ft | 463 kts | 353° |
| 2026-05-08 01:45 | -8.64933 | -78.08845 | 33904 ft | 463 kts | 353° |
| 2026-05-08 01:46 | -8.58478 | -78.09166 | 33904 ft | 463 kts | 354° |
| 2026-05-08 01:46 | -8.52077 | -78.09486 | 33905 ft | 463 kts | 354° |
| 2026-05-08 01:47 | -8.45623 | -78.09807 | 33905 ft | 463 kts | 354° |
| 2026-05-08 01:47 | -8.39170 | -78.10128 | 33905 ft | 463 kts | 354° |
| 2026-05-08 01:48 | -8.29498 | -78.10609 | 33905 ft | 464 kts | 354° |
| 2026-05-08 01:48 | -8.23085 | -78.10928 | 33905 ft | 463 kts | 354° |
| 2026-05-08 01:49 | -8.16641 | -78.11248 | 33905 ft | 463 kts | 354° |
| 2026-05-08 01:49 | -8.10186 | -78.11567 | 33905 ft | 463 kts | 354° |
| 2026-05-08 01:50 | -8.03804 | -78.11882 | 33929 ft | 463 kts | 354° |
| 2026-05-08 01:50 | -7.97372 | -78.12199 | 34002 ft | 463 kts | 354° |
| 2026-05-08 01:51 | -7.90959 | -78.12515 | 34045 ft | 463 kts | 354° |
| 2026-05-08 01:51 | -7.84513 | -78.12833 | 34073 ft | 463 kts | 354° |
| 2026-05-08 01:52 | -7.78080 | -78.13150 | 34094 ft | 462 kts | 354° |
| 2026-05-08 01:52 | -7.71649 | -78.13467 | 34113 ft | 462 kts | 354° |
| 2026-05-08 01:53 | -7.65263 | -78.13782 | 34135 ft | 462 kts | 354° |
| 2026-05-08 01:53 | -7.58827 | -78.14099 | 34183 ft | 463 kts | 354° |
| 2026-05-08 01:54 | -7.52392 | -78.14415 | 34214 ft | 463 kts | 354° |
| 2026-05-08 01:54 | -7.47045 | -78.14679 | 34232 ft | 462 kts | 354° |
| 2026-05-08 01:55 | -7.40709 | -78.14990 | 34251 ft | 462 kts | 354° |
| 2026-05-08 01:55 | -7.34278 | -78.15307 | 34266 ft | 462 kts | 354° |
| 2026-05-08 01:56 | -7.27865 | -78.15622 | 34278 ft | 462 kts | 354° |
| 2026-05-08 01:56 | -7.21423 | -78.15939 | 34287 ft | 462 kts | 354° |
| 2026-05-08 01:57 | -7.14991 | -78.16255 | 34280 ft | 462 kts | 354° |
| 2026-05-08 01:57 | -7.08597 | -78.16570 | 34286 ft | 462 kts | 354° |
| 2026-05-08 01:58 | -7.02161 | -78.16886 | 34288 ft | 462 kts | 354° |
| 2026-05-08 01:58 | -6.95730 | -78.17202 | 34286 ft | 463 kts | 354° |
| 2026-05-08 01:59 | -6.89300 | -78.17518 | 34282 ft | 463 kts | 354° |
| 2026-05-08 01:59 | -6.82854 | -78.17835 | 34276 ft | 463 kts | 354° |
| 2026-05-08 02:00 | -6.76557 | -78.18144 | 34270 ft | 463 kts | 354° |
| 2026-05-08 02:00 | -6.70119 | -78.18460 | 34264 ft | 463 kts | 354° |
| 2026-05-08 02:01 | -6.63674 | -78.18776 | 34260 ft | 462 kts | 354° |
| 2026-05-08 02:01 | -6.57245 | -78.19091 | 34258 ft | 462 kts | 354° |
| 2026-05-08 02:02 | -6.50816 | -78.19406 | 34257 ft | 462 kts | 354° |
| 2026-05-08 02:02 | -6.44384 | -78.19722 | 34257 ft | 462 kts | 354° |
| 2026-05-08 02:03 | -6.37953 | -78.20037 | 34257 ft | 462 kts | 354° |
| 2026-05-08 02:03 | -6.31563 | -78.20350 | 34256 ft | 462 kts | 354° |
| 2026-05-08 02:04 | -6.25135 | -78.20666 | 34254 ft | 462 kts | 354° |
| 2026-05-08 02:04 | -6.18697 | -78.20981 | 34252 ft | 462 kts | 354° |
| 2026-05-08 02:05 | -6.12362 | -78.21292 | 34246 ft | 463 kts | 354° |
| 2026-05-08 02:05 | -6.05923 | -78.21607 | 34236 ft | 463 kts | 354° |
| 2026-05-08 02:06 | -5.99520 | -78.21921 | 34222 ft | 463 kts | 354° |
| 2026-05-08 02:06 | -5.93083 | -78.22236 | 34206 ft | 463 kts | 354° |
| 2026-05-08 02:07 | -5.86640 | -78.22551 | 34190 ft | 463 kts | 354° |
| 2026-05-08 02:07 | -5.80205 | -78.22866 | 34173 ft | 463 kts | 354° |
| 2026-05-08 02:08 | -5.73804 | -78.23179 | 34153 ft | 463 kts | 354° |
| 2026-05-08 02:08 | -5.67369 | -78.23494 | 34134 ft | 463 kts | 354° |
| 2026-05-08 02:09 | -5.60933 | -78.23809 | 34116 ft | 463 kts | 354° |
| 2026-05-08 02:09 | -5.54482 | -78.24124 | 34093 ft | 463 kts | 354° |
| 2026-05-08 02:10 | -5.48120 | -78.24435 | 34073 ft | 463 kts | 354° |
| 2026-05-08 02:10 | -5.41667 | -78.24750 | 34060 ft | 463 kts | 354° |
| 2026-05-08 02:11 | -5.35270 | -78.25063 | 34052 ft | 463 kts | 354° |
| 2026-05-08 02:11 | -5.28817 | -78.25378 | 34048 ft | 463 kts | 354° |
| 2026-05-08 02:12 | -5.22375 | -78.25693 | 34046 ft | 463 kts | 354° |
| 2026-05-08 02:12 | -5.15931 | -78.26007 | 34046 ft | 463 kts | 354° |
| 2026-05-08 02:13 | -5.09535 | -78.26320 | 34061 ft | 463 kts | 354° |
| 2026-05-08 02:13 | -5.03107 | -78.26633 | 34071 ft | 463 kts | 354° |
| 2026-05-08 02:14 | -4.96666 | -78.26948 | 34077 ft | 462 kts | 354° |
| 2026-05-08 02:14 | -4.90227 | -78.27262 | 34082 ft | 462 kts | 354° |
| 2026-05-08 02:15 | -4.83865 | -78.27572 | 34087 ft | 462 kts | 354° |
| 2026-05-08 02:15 | -4.77483 | -78.27883 | 34093 ft | 462 kts | 354° |
| 2026-05-08 02:16 | -4.71050 | -78.28197 | 34098 ft | 462 kts | 354° |
| 2026-05-08 02:16 | -4.64613 | -78.28511 | 34104 ft | 462 kts | 354° |
| 2026-05-08 02:17 | -4.58199 | -78.28824 | 34110 ft | 462 kts | 354° |
| 2026-05-08 02:17 | -4.51761 | -78.29138 | 34116 ft | 461 kts | 354° |
| 2026-05-08 02:18 | -4.45392 | -78.29448 | 34123 ft | 461 kts | 354° |
| 2026-05-08 02:18 | -4.38970 | -78.29761 | 34129 ft | 461 kts | 354° |
| 2026-05-08 02:19 | -4.32554 | -78.30073 | 34135 ft | 461 kts | 354° |
| 2026-05-08 02:19 | -4.26140 | -78.30385 | 34141 ft | 461 kts | 354° |
| 2026-05-08 02:20 | -4.19875 | -78.30691 | 34147 ft | 461 kts | 354° |
| 2026-05-08 02:20 | -4.13457 | -78.31003 | 34154 ft | 461 kts | 354° |
| 2026-05-08 02:21 | -4.07044 | -78.31315 | 34160 ft | 461 kts | 354° |
| 2026-05-08 02:21 | -4.00626 | -78.31628 | 34166 ft | 461 kts | 354° |
| 2026-05-08 02:22 | -3.94216 | -78.31939 | 34172 ft | 461 kts | 354° |
| 2026-05-08 02:22 | -3.87799 | -78.32252 | 34178 ft | 461 kts | 354° |
| 2026-05-08 02:23 | -3.81432 | -78.32562 | 34183 ft | 460 kts | 354° |
| 2026-05-08 02:23 | -3.75027 | -78.32873 | 34188 ft | 460 kts | 354° |
| 2026-05-08 02:24 | -3.68610 | -78.33185 | 34193 ft | 460 kts | 354° |
| 2026-05-08 02:24 | -3.62203 | -78.33497 | 34197 ft | 460 kts | 354° |
| 2026-05-08 02:25 | -3.55943 | -78.33801 | 34201 ft | 460 kts | 354° |
| 2026-05-08 02:25 | -3.49549 | -78.34113 | 34198 ft | 460 kts | 355° |
| 2026-05-08 02:26 | -3.43152 | -78.34427 | 34199 ft | 459 kts | 354° |
| 2026-05-08 02:26 | -3.36761 | -78.34744 | 34198 ft | 459 kts | 354° |
| 2026-05-08 02:27 | -3.30363 | -78.35060 | 34185 ft | 460 kts | 354° |
| 2026-05-08 02:27 | -3.24004 | -78.35374 | 34185 ft | 460 kts | 354° |
| 2026-05-08 02:28 | -3.17609 | -78.35690 | 34186 ft | 460 kts | 354° |
| 2026-05-08 02:28 | -3.11233 | -78.36006 | 34186 ft | 459 kts | 355° |
| 2026-05-08 02:29 | -3.04836 | -78.36322 | 34184 ft | 459 kts | 355° |
| 2026-05-08 02:29 | -2.98487 | -78.36635 | 34180 ft | 459 kts | 355° |
| 2026-05-08 02:30 | -2.92205 | -78.36945 | 34174 ft | 459 kts | 355° |
| 2026-05-08 02:30 | -2.85814 | -78.37261 | 34166 ft | 459 kts | 355° |
| 2026-05-08 02:31 | -2.79430 | -78.37576 | 34155 ft | 459 kts | 355° |
| 2026-05-08 02:31 | -2.73046 | -78.37891 | 34141 ft | 459 kts | 355° |
| 2026-05-08 02:32 | -2.66696 | -78.38205 | 34125 ft | 459 kts | 355° |
| 2026-05-08 02:32 | -2.60299 | -78.38521 | 34106 ft | 459 kts | 355° |
| 2026-05-08 02:33 | -2.53915 | -78.38836 | 34086 ft | 459 kts | 355° |
| 2026-05-08 02:33 | -2.47526 | -78.39151 | 34068 ft | 459 kts | 355° |
| 2026-05-08 02:34 | -2.41184 | -78.39464 | 34052 ft | 460 kts | 355° |
| 2026-05-08 02:34 | -2.34795 | -78.39779 | 34051 ft | 460 kts | 355° |
| 2026-05-08 02:35 | -2.28564 | -78.40087 | 34049 ft | 460 kts | 355° |
| 2026-05-08 02:35 | -2.22173 | -78.40402 | 34047 ft | 460 kts | 355° |
| 2026-05-08 02:36 | -2.15776 | -78.40718 | 34051 ft | 459 kts | 355° |
| 2026-05-08 02:36 | -2.09383 | -78.41033 | 34058 ft | 459 kts | 355° |
| 2026-05-08 02:37 | -2.03032 | -78.41346 | 34066 ft | 459 kts | 355° |
| 2026-05-08 02:37 | -1.96644 | -78.41661 | 34075 ft | 459 kts | 355° |
| 2026-05-08 02:38 | -1.90263 | -78.41976 | 34085 ft | 459 kts | 355° |
| 2026-05-08 02:38 | -1.83869 | -78.42291 | 34094 ft | 459 kts | 355° |
| 2026-05-08 02:39 | -1.77486 | -78.42606 | 34102 ft | 459 kts | 355° |
| 2026-05-08 02:39 | -1.71100 | -78.42921 | 34109 ft | 459 kts | 355° |
| 2026-05-08 02:40 | -1.64806 | -78.43231 | 34116 ft | 459 kts | 355° |
| 2026-05-08 02:40 | -1.58464 | -78.43544 | 34124 ft | 459 kts | 355° |
| 2026-05-08 02:41 | -1.52079 | -78.43858 | 34134 ft | 458 kts | 355° |
| 2026-05-08 02:41 | -1.46784 | -78.44119 | 34151 ft | 458 kts | 355° |
| 2026-05-08 02:42 | -1.40409 | -78.44433 | 34186 ft | 458 kts | 355° |
| 2026-05-08 02:42 | -1.34054 | -78.44747 | 34218 ft | 457 kts | 355° |
| 2026-05-08 02:43 | -1.27698 | -78.45060 | 34251 ft | 457 kts | 355° |
| 2026-05-08 02:43 | -1.21352 | -78.45373 | 34288 ft | 457 kts | 355° |
| 2026-05-08 02:44 | -1.14992 | -78.45687 | 34331 ft | 457 kts | 355° |
| 2026-05-08 02:44 | -1.08646 | -78.45997 | 34375 ft | 456 kts | 355° |
| 2026-05-08 02:45 | -1.02421 | -78.46300 | 34412 ft | 456 kts | 355° |
| 2026-05-08 02:45 | -0.96077 | -78.46608 | 34441 ft | 456 kts | 355° |
| 2026-05-08 02:46 | -0.89736 | -78.46917 | 34460 ft | 455 kts | 355° |
| 2026-05-08 02:46 | -0.83403 | -78.47225 | 34470 ft | 455 kts | 355° |
| 2026-05-08 02:47 | -0.77075 | -78.47533 | 34464 ft | 455 kts | 355° |
| 2026-05-08 02:47 | -0.70750 | -78.47841 | 34454 ft | 455 kts | 355° |
| 2026-05-08 02:48 | -0.64434 | -78.48148 | 34442 ft | 455 kts | 355° |
| 2026-05-08 02:48 | -0.58142 | -78.48455 | 34428 ft | 455 kts | 355° |
| 2026-05-08 02:49 | -0.51805 | -78.48763 | 34413 ft | 455 kts | 355° |
| 2026-05-08 02:49 | -0.45477 | -78.49071 | 34399 ft | 455 kts | 355° |
| 2026-05-08 02:50 | -0.39204 | -78.49376 | 34388 ft | 455 kts | 355° |
| 2026-05-08 02:50 | -0.32884 | -78.49684 | 34380 ft | 455 kts | 355° |
| 2026-05-08 02:51 | -0.26605 | -78.49990 | 34377 ft | 455 kts | 355° |
| 2026-05-08 02:51 | -0.20284 | -78.50297 | 34376 ft | 455 kts | 355° |
| 2026-05-08 02:52 | -0.13950 | -78.50606 | 34376 ft | 455 kts | 355° |
| 2026-05-08 02:52 | -0.07630 | -78.50913 | 34380 ft | 455 kts | 355° |
| 2026-05-08 02:53 | -0.01312 | -78.51320 | 34381 ft | 454 kts | 352° |
| 2026-05-08 02:53 | 0.04943 | -78.52166 | 34381 ft | 453 kts | 351° |
| 2026-05-08 02:54 | 0.11151 | -78.53008 | 34382 ft | 453 kts | 351° |
| 2026-05-08 02:54 | 0.17404 | -78.53825 | 34382 ft | 453 kts | 351° |
| 2026-05-08 02:55 | 0.26684 | -78.55023 | 34381 ft | 453 kts | 351° |
| 2026-05-08 02:56 | 0.32935 | -78.55828 | 34379 ft | 453 kts | 351° |
| 2026-05-08 02:56 | 0.39188 | -78.56633 | 34375 ft | 453 kts | 351° |
| 2026-05-08 02:57 | 0.45458 | -78.57440 | 34371 ft | 453 kts | 351° |
| 2026-05-08 02:57 | 0.51724 | -78.58249 | 34365 ft | 453 kts | 351° |
| 2026-05-08 02:58 | 0.57977 | -78.59059 | 34358 ft | 453 kts | 351° |
| 2026-05-08 02:58 | 0.64204 | -78.59866 | 34350 ft | 453 kts | 351° |
| 2026-05-08 02:59 | 0.70455 | -78.60676 | 34341 ft | 453 kts | 351° |
| 2026-05-08 02:59 | 0.76711 | -78.61487 | 34329 ft | 453 kts | 352° |
| 2026-05-08 03:00 | 0.82884 | -78.62287 | 34303 ft | 453 kts | 352° |
| 2026-05-08 03:00 | 0.89100 | -78.63093 | 34249 ft | 453 kts | 352° |
| 2026-05-08 03:01 | 0.95368 | -78.63906 | 34216 ft | 453 kts | 352° |
| 2026-05-08 03:01 | 1.01573 | -78.64711 | 34188 ft | 453 kts | 352° |
| 2026-05-08 03:02 | 1.07841 | -78.65523 | 34165 ft | 454 kts | 352° |
| 2026-05-08 03:02 | 1.14106 | -78.66336 | 34142 ft | 454 kts | 352° |
| 2026-05-08 03:03 | 1.20372 | -78.67149 | 34118 ft | 453 kts | 352° |
| 2026-05-08 03:03 | 1.26637 | -78.67961 | 34092 ft | 454 kts | 352° |
| 2026-05-08 03:04 | 1.32860 | -78.68768 | 34063 ft | 454 kts | 352° |
| 2026-05-08 03:04 | 1.39138 | -78.69550 | 34037 ft | 454 kts | 352° |
| 2026-05-08 03:05 | 1.45222 | -78.70302 | 34011 ft | 453 kts | 352° |
| 2026-05-08 03:05 | 1.51534 | -78.71084 | 33987 ft | 453 kts | 352° |
| 2026-05-08 03:06 | 1.57799 | -78.71860 | 33968 ft | 453 kts | 352° |
| 2026-05-08 03:06 | 1.64073 | -78.72638 | 33954 ft | 454 kts | 352° |
| 2026-05-08 03:07 | 1.70339 | -78.73415 | 33944 ft | 454 kts | 352° |
| 2026-05-08 03:07 | 1.76614 | -78.74194 | 33937 ft | 454 kts | 352° |
| 2026-05-08 03:08 | 1.82845 | -78.74964 | 33936 ft | 453 kts | 353° |
| 2026-05-08 03:08 | 1.89106 | -78.75681 | 33935 ft | 453 kts | 353° |
| 2026-05-08 03:09 | 1.95384 | -78.76401 | 33936 ft | 454 kts | 353° |
| 2026-05-08 03:09 | 2.01672 | -78.77123 | 33938 ft | 453 kts | 354° |
| 2026-05-08 03:10 | 2.07618 | -78.77808 | 33938 ft | 453 kts | 354° |
| 2026-05-08 03:10 | 2.13961 | -78.78538 | 33940 ft | 453 kts | 354° |
| 2026-05-08 03:11 | 2.20228 | -78.79260 | 33941 ft | 453 kts | 354° |
| 2026-05-08 03:11 | 2.26495 | -78.79981 | 33944 ft | 453 kts | 354° |
| 2026-05-08 03:12 | 2.32741 | -78.80701 | 33946 ft | 453 kts | 354° |
| 2026-05-08 03:12 | 2.39015 | -78.81424 | 33949 ft | 453 kts | 354° |
| 2026-05-08 03:13 | 2.45284 | -78.82147 | 33952 ft | 453 kts | 354° |
| 2026-05-08 03:13 | 2.51545 | -78.82868 | 33943 ft | 453 kts | 354° |
| 2026-05-08 03:14 | 2.57818 | -78.83592 | 33933 ft | 453 kts | 353° |
| 2026-05-08 03:14 | 2.64043 | -78.84309 | 33930 ft | 453 kts | 353° |
| 2026-05-08 03:15 | 2.70238 | -78.85024 | 33929 ft | 453 kts | 353° |
| 2026-05-08 03:15 | 2.76512 | -78.85747 | 33929 ft | 453 kts | 353° |
| 2026-05-08 03:16 | 2.82779 | -78.86470 | 33928 ft | 453 kts | 353° |
| 2026-05-08 03:16 | 2.89039 | -78.87192 | 33927 ft | 453 kts | 353° |
| 2026-05-08 03:17 | 2.95265 | -78.87910 | 33926 ft | 453 kts | 353° |
| 2026-05-08 03:17 | 3.01541 | -78.88634 | 33925 ft | 453 kts | 353° |
| 2026-05-08 03:18 | 3.07806 | -78.89357 | 33925 ft | 453 kts | 353° |
| 2026-05-08 03:18 | 3.14078 | -78.90081 | 33924 ft | 453 kts | 353° |
| 2026-05-08 03:19 | 3.20306 | -78.90800 | 33923 ft | 453 kts | 353° |
| 2026-05-08 03:19 | 3.26581 | -78.91524 | 33923 ft | 454 kts | 353° |
| 2026-05-08 03:20 | 3.32738 | -78.92235 | 33922 ft | 454 kts | 353° |
| 2026-05-08 03:20 | 3.38963 | -78.92953 | 33921 ft | 454 kts | 353° |
| 2026-05-08 03:21 | 3.45278 | -78.93683 | 33921 ft | 454 kts | 353° |
| 2026-05-08 03:21 | 3.51567 | -78.94409 | 33920 ft | 454 kts | 353° |
| 2026-05-08 03:22 | 3.57851 | -78.95135 | 33919 ft | 454 kts | 353° |
| 2026-05-08 03:22 | 3.64076 | -78.95854 | 33919 ft | 454 kts | 353° |
| 2026-05-08 03:23 | 3.70353 | -78.96579 | 33919 ft | 453 kts | 353° |
| 2026-05-08 03:23 | 3.76630 | -78.97304 | 33918 ft | 453 kts | 353° |
| 2026-05-08 03:24 | 3.82896 | -78.98028 | 33917 ft | 453 kts | 353° |
| 2026-05-08 03:24 | 3.89167 | -78.98753 | 33913 ft | 453 kts | 353° |
| 2026-05-08 03:25 | 3.95334 | -78.99466 | 33901 ft | 453 kts | 353° |
| 2026-05-08 03:25 | 4.01612 | -79.00192 | 33897 ft | 453 kts | 353° |
| 2026-05-08 03:26 | 4.07864 | -79.00915 | 33897 ft | 452 kts | 353° |
| 2026-05-08 03:26 | 4.14113 | -79.01638 | 33896 ft | 452 kts | 353° |
| 2026-05-08 03:27 | 4.20367 | -79.02361 | 33896 ft | 452 kts | 353° |
| 2026-05-08 03:27 | 4.25567 | -79.02963 | 33896 ft | 452 kts | 353° |
| 2026-05-08 03:28 | 4.31811 | -79.03685 | 33896 ft | 452 kts | 353° |
| 2026-05-08 03:28 | 4.39077 | -79.04526 | 33895 ft | 452 kts | 353° |
| 2026-05-08 03:29 | 4.44277 | -79.05128 | 33895 ft | 452 kts | 353° |
| 2026-05-08 03:29 | 4.50533 | -79.05852 | 33894 ft | 452 kts | 353° |
| 2026-05-08 03:30 | 4.59830 | -79.06929 | 33895 ft | 452 kts | 353° |
| 2026-05-08 03:31 | 4.72320 | -79.08375 | 33893 ft | 451 kts | 353° |
| 2026-05-08 03:32 | 4.81641 | -79.09455 | 33893 ft | 451 kts | 353° |
| 2026-05-08 03:32 | 4.87794 | -79.10168 | 33893 ft | 450 kts | 353° |
| 2026-05-08 03:33 | 4.94109 | -79.10900 | 33892 ft | 450 kts | 353° |
| 2026-05-08 03:33 | 5.00309 | -79.11619 | 33892 ft | 450 kts | 353° |
| 2026-05-08 03:34 | 5.06525 | -79.12340 | 33891 ft | 449 kts | 353° |
| 2026-05-08 03:34 | 5.12744 | -79.13061 | 33891 ft | 449 kts | 353° |
| 2026-05-08 03:35 | 5.18958 | -79.13782 | 33891 ft | 449 kts | 353° |
| 2026-05-08 03:35 | 5.25109 | -79.14496 | 33891 ft | 449 kts | 353° |
| 2026-05-08 03:36 | 5.31323 | -79.15217 | 33890 ft | 449 kts | 353° |
| 2026-05-08 03:36 | 5.37520 | -79.15936 | 33890 ft | 449 kts | 353° |
| 2026-05-08 03:37 | 5.43681 | -79.16651 | 33890 ft | 448 kts | 353° |
| 2026-05-08 03:37 | 5.49891 | -79.17373 | 33890 ft | 448 kts | 354° |
| 2026-05-08 03:38 | 5.56084 | -79.18092 | 33889 ft | 448 kts | 354° |
| 2026-05-08 03:38 | 5.62287 | -79.18812 | 33889 ft | 448 kts | 354° |
| 2026-05-08 03:39 | 5.68476 | -79.19531 | 33889 ft | 448 kts | 354° |
| 2026-05-08 03:39 | 5.74630 | -79.20246 | 33890 ft | 447 kts | 354° |
| 2026-05-08 03:40 | 5.80821 | -79.20967 | 33890 ft | 447 kts | 354° |
| 2026-05-08 03:40 | 5.86912 | -79.21675 | 33890 ft | 447 kts | 354° |
| 2026-05-08 03:41 | 5.93095 | -79.22432 | 33889 ft | 447 kts | 351° |
| 2026-05-08 03:41 | 5.99138 | -79.23911 | 33890 ft | 447 kts | 344° |
| 2026-05-08 03:42 | 6.05116 | -79.25634 | 33890 ft | 446 kts | 345° |
| 2026-05-08 03:42 | 6.11056 | -79.27333 | 33890 ft | 446 kts | 345° |
| 2026-05-08 03:43 | 6.17032 | -79.29035 | 33890 ft | 446 kts | 345° |
| 2026-05-08 03:43 | 6.23007 | -79.30735 | 33890 ft | 446 kts | 345° |
| 2026-05-08 03:44 | 6.28995 | -79.32437 | 33890 ft | 446 kts | 345° |
| 2026-05-08 03:44 | 6.34936 | -79.34124 | 33891 ft | 446 kts | 345° |
| 2026-05-08 03:45 | 6.40896 | -79.35818 | 33891 ft | 446 kts | 345° |
| 2026-05-08 03:45 | 6.46758 | -79.37485 | 33894 ft | 446 kts | 345° |
| 2026-05-08 03:46 | 6.52734 | -79.39185 | 33893 ft | 446 kts | 345° |
| 2026-05-08 03:46 | 6.58710 | -79.40886 | 33893 ft | 446 kts | 345° |
| 2026-05-08 03:47 | 6.64690 | -79.42588 | 33894 ft | 446 kts | 345° |
| 2026-05-08 03:47 | 6.70635 | -79.44280 | 33893 ft | 440 kts | 345° |
| 2026-05-08 03:48 | 6.76433 | -79.45931 | 33894 ft | 432 kts | 345° |
| 2026-05-08 03:48 | 6.82237 | -79.47584 | 33629 ft | 433 kts | 345° |
| 2026-05-08 03:48 | 6.85119 | -79.48405 | 33299 ft | 427 kts | 345° |
| 2026-05-08 03:49 | 6.87967 | -79.49216 | 32878 ft | 424 kts | 345° |
| 2026-05-08 03:49 | 6.90798 | -79.50023 | 32462 ft | 422 kts | 345° |
| 2026-05-08 03:49 | 6.93581 | -79.50816 | 32056 ft | 419 kts | 345° |
| 2026-05-08 03:49 | 6.96375 | -79.51613 | 31651 ft | 417 kts | 345° |
| 2026-05-08 03:50 | 6.99057 | -79.52376 | 31261 ft | 414 kts | 345° |
| 2026-05-08 03:50 | 7.01846 | -79.53171 | 30857 ft | 412 kts | 345° |
| 2026-05-08 03:50 | 7.04601 | -79.53958 | 30463 ft | 410 kts | 345° |
| 2026-05-08 03:50 | 7.07332 | -79.54738 | 30068 ft | 408 kts | 345° |
| 2026-05-08 03:51 | 7.10067 | -79.55518 | 29685 ft | 406 kts | 346° |
| 2026-05-08 03:51 | 7.12772 | -79.56296 | 29294 ft | 404 kts | 346° |
| 2026-05-08 03:51 | 7.15475 | -79.57063 | 28903 ft | 402 kts | 346° |
| 2026-05-08 03:51 | 7.18162 | -79.57820 | 28505 ft | 399 kts | 346° |
| 2026-05-08 03:52 | 7.20826 | -79.58586 | 28113 ft | 397 kts | 346° |
| 2026-05-08 03:52 | 7.23477 | -79.59344 | 27731 ft | 396 kts | 346° |
| 2026-05-08 03:52 | 7.26149 | -79.60000 | 27335 ft | 392 kts | 352° |
| 2026-05-08 03:52 | 7.28810 | -79.60322 | 26958 ft | 387 kts | 359° |
| 2026-05-08 03:53 | 7.31527 | -79.60359 | 26569 ft | 384 kts | 4° |
| 2026-05-08 03:53 | 7.34157 | -79.60264 | 26184 ft | 382 kts | 5° |
| 2026-05-08 03:53 | 7.36840 | -79.60107 | 25787 ft | 380 kts | 6° |
| 2026-05-08 03:53 | 7.39470 | -79.59952 | 25403 ft | 378 kts | 6° |
| 2026-05-08 03:54 | 7.42052 | -79.59784 | 25024 ft | 375 kts | 7° |
| 2026-05-08 03:54 | 7.44659 | -79.59620 | 24634 ft | 374 kts | 6° |
| 2026-05-08 03:54 | 7.47252 | -79.59485 | 24258 ft | 371 kts | 6° |
| 2026-05-08 03:54 | 7.49820 | -79.59319 | 23883 ft | 369 kts | 6° |
| 2026-05-08 03:55 | 7.52180 | -79.59167 | 23533 ft | 367 kts | 6° |
| 2026-05-08 03:55 | 7.54834 | -79.58999 | 23139 ft | 364 kts | 6° |
| 2026-05-08 03:55 | 7.57365 | -79.58838 | 22764 ft | 362 kts | 6° |
| 2026-05-08 03:55 | 7.59877 | -79.58680 | 22390 ft | 360 kts | 6° |
| 2026-05-08 03:56 | 7.62378 | -79.58523 | 22018 ft | 358 kts | 6° |
| 2026-05-08 03:56 | 7.64859 | -79.58368 | 21650 ft | 356 kts | 6° |
| 2026-05-08 03:56 | 7.67321 | -79.58213 | 21283 ft | 354 kts | 6° |
| 2026-05-08 03:56 | 7.69786 | -79.58059 | 20916 ft | 353 kts | 6° |
| 2026-05-08 03:57 | 7.72237 | -79.57906 | 20551 ft | 351 kts | 6° |
| 2026-05-08 03:57 | 7.74663 | -79.57753 | 20190 ft | 349 kts | 6° |
| 2026-05-08 03:57 | 7.77080 | -79.57602 | 19829 ft | 347 kts | 6° |
| 2026-05-08 03:57 | 7.79483 | -79.57452 | 19470 ft | 345 kts | 6° |
| 2026-05-08 03:58 | 7.81850 | -79.57303 | 19117 ft | 343 kts | 6° |
| 2026-05-08 03:58 | 7.84225 | -79.57154 | 18762 ft | 342 kts | 6° |
| 2026-05-08 03:58 | 7.86597 | -79.57006 | 18407 ft | 340 kts | 6° |
| 2026-05-08 03:58 | 7.88953 | -79.56859 | 18054 ft | 338 kts | 6° |
| 2026-05-08 03:59 | 7.91288 | -79.56720 | 17701 ft | 335 kts | 6° |
| 2026-05-08 03:59 | 7.93616 | -79.56568 | 17353 ft | 334 kts | 6° |
| 2026-05-08 03:59 | 7.95923 | -79.56422 | 17008 ft | 332 kts | 6° |
| 2026-05-08 03:59 | 7.98201 | -79.56278 | 16667 ft | 330 kts | 6° |
| 2026-05-08 04:00 | 8.00443 | -79.56137 | 16330 ft | 329 kts | 6° |
| 2026-05-08 04:00 | 8.02721 | -79.55994 | 15988 ft | 327 kts | 6° |
| 2026-05-08 04:00 | 8.04992 | -79.55852 | 15645 ft | 325 kts | 6° |
| 2026-05-08 04:00 | 8.07247 | -79.55710 | 15306 ft | 324 kts | 6° |
| 2026-05-08 04:01 | 8.09490 | -79.55584 | 14969 ft | 322 kts | 5° |
| 2026-05-08 04:01 | 8.11733 | -79.55538 | 14632 ft | 321 kts | 3° |
| 2026-05-08 04:01 | 8.13965 | -79.55531 | 14295 ft | 320 kts | 3° |
| 2026-05-08 04:01 | 8.16184 | -79.55520 | 13961 ft | 318 kts | 3° |
| 2026-05-08 04:02 | 8.18363 | -79.55504 | 13632 ft | 316 kts | 3° |
| 2026-05-08 04:02 | 8.20560 | -79.55484 | 13299 ft | 315 kts | 4° |
| 2026-05-08 04:02 | 8.22744 | -79.55461 | 12968 ft | 313 kts | 4° |
| 2026-05-08 04:02 | 8.24917 | -79.55436 | 12638 ft | 311 kts | 4° |
| 2026-05-08 04:03 | 8.27078 | -79.55410 | 12306 ft | 310 kts | 4° |
| 2026-05-08 04:03 | 8.31367 | -79.55358 | 11643 ft | 307 kts | 4° |
| 2026-05-08 04:03 | 8.33502 | -79.55331 | 11313 ft | 305 kts | 3° |
| 2026-05-08 04:04 | 8.35619 | -79.55304 | 10987 ft | 304 kts | 3° |
| 2026-05-08 04:04 | 8.37736 | -79.55276 | 10659 ft | 302 kts | 2° |
| 2026-05-08 04:04 | 8.39811 | -79.55251 | 10335 ft | 301 kts | 2° |
| 2026-05-08 04:04 | 8.41925 | -79.55224 | 10025 ft | 299 kts | 2° |
| 2026-05-08 04:05 | 8.43946 | -79.55199 | 9933 ft | 289 kts | 2° |
| 2026-05-08 04:05 | 8.45933 | -79.55174 | 9722 ft | 284 kts | 2° |
| 2026-05-08 04:05 | 8.47903 | -79.55149 | 9420 ft | 282 kts | 2° |
| 2026-05-08 04:05 | 8.49855 | -79.55124 | 9117 ft | 281 kts | 1° |
| 2026-05-08 04:06 | 8.51807 | -79.55100 | 8814 ft | 279 kts | 1° |
| 2026-05-08 04:06 | 8.53750 | -79.55075 | 8508 ft | 277 kts | 1° |
| 2026-05-08 04:06 | 8.55670 | -79.55051 | 8205 ft | 276 kts | 1° |
| 2026-05-08 04:06 | 8.57579 | -79.55027 | 8040 ft | 269 kts | 1° |
| 2026-05-08 04:07 | 8.59413 | -79.55004 | 7969 ft | 259 kts | 1° |
| 2026-05-08 04:07 | 8.61198 | -79.54981 | 7719 ft | 256 kts | 1° |
| 2026-05-08 04:07 | 8.62972 | -79.54958 | 7440 ft | 254 kts | 1° |
| 2026-05-08 04:07 | 8.64739 | -79.54936 | 7159 ft | 253 kts | 1° |
| 2026-05-08 04:08 | 8.66490 | -79.54914 | 6878 ft | 251 kts | 1° |
| 2026-05-08 04:08 | 8.68235 | -79.54891 | 6598 ft | 250 kts | 1° |
| 2026-05-08 04:08 | 8.69968 | -79.54869 | 6318 ft | 248 kts | 1° |
| 2026-05-08 04:08 | 8.71672 | -79.54847 | 6041 ft | 247 kts | 1° |
| 2026-05-08 04:09 | 8.73384 | -79.54825 | 5758 ft | 245 kts | 1° |
| 2026-05-08 04:09 | 8.75088 | -79.54804 | 5473 ft | 244 kts | 1° |
| 2026-05-08 04:09 | 8.76787 | -79.54781 | 5187 ft | 243 kts | 1° |
| 2026-05-08 04:09 | 8.77358 | -79.54773 | 5090 ft | 242 kts | 1° |
| 2026-05-08 04:10 | 8.79384 | -79.54731 | 4742 ft | 241 kts | 6° |
| 2026-05-08 04:10 | 8.80994 | -79.54302 | 4450 ft | 239 kts | 24° |
| 2026-05-08 04:10 | 8.82415 | -79.53434 | 4156 ft | 239 kts | 35° |
| 2026-05-08 04:10 | 8.83726 | -79.52407 | 3858 ft | 238 kts | 38° |
| 2026-05-08 04:11 | 8.85012 | -79.51360 | 3562 ft | 237 kts | 37° |
| 2026-05-08 04:11 | 8.86311 | -79.50333 | 3265 ft | 236 kts | 37° |
| 2026-05-08 04:11 | 8.87595 | -79.49327 | 3075 ft | 230 kts | 37° |
| 2026-05-08 04:11 | 8.88838 | -79.48360 | 3007 ft | 223 kts | 35° |
| 2026-05-08 04:12 | 8.90134 | -79.47560 | 2846 ft | 219 kts | 28° |
| 2026-05-08 04:12 | 8.91462 | -79.46822 | 2618 ft | 215 kts | 28° |
| 2026-05-08 04:12 | 8.92745 | -79.46097 | 2412 ft | 207 kts | 29° |
| 2026-05-08 04:12 | 8.93973 | -79.45399 | 2218 ft | 197 kts | 28° |
| 2026-05-08 04:13 | 8.95141 | -79.44734 | 2028 ft | 187 kts | 28° |
| 2026-05-08 04:13 | 8.96240 | -79.44109 | 1847 ft | 176 kts | 28° |
| 2026-05-08 04:13 | 8.97284 | -79.43515 | 1680 ft | 169 kts | 28° |
| 2026-05-08 04:13 | 8.98274 | -79.42952 | 1610 ft | 160 kts | 29° |
| 2026-05-08 04:14 | 8.98896 | -79.42598 | 1483 ft | 158 kts | 29° |
| 2026-05-08 04:14 | 8.99850 | -79.42056 | 1302 ft | 153 kts | 29° |
| 2026-05-08 04:14 | 9.01069 | -79.41362 | 1035 ft | 151 kts | 30° |
| 2026-05-08 04:14 | 9.01988 | -79.40839 | 840 ft | 153 kts | 30° |
| 2026-05-08 04:15 | 9.02621 | -79.40479 | 708 ft | 154 kts | 30° |
| 2026-05-08 04:15 | 9.03266 | -79.40112 | 573 ft | 154 kts | 29° |
| 2026-05-08 04:15 | 9.04248 | -79.39539 | 376 ft | 151 kts | 29° |
| 2026-05-08 04:15 | 9.05144 | -79.39038 | 175 ft | 143 kts | 26° |
| 2026-05-08 04:16 | 9.05955 | -79.38579 | 144 ft | 123 kts | 39° |
| 2026-05-08 04:16 | 9.06542 | -79.38237 | 143 ft | 69 kts | 27° |
| 2026-05-08 04:16 | 9.06840 | -79.38074 | 143 ft | 41 kts | 28° |
| 2026-05-08 04:16 | 9.07056 | -79.37950 | 143 ft | 20 kts | 31° |
| 2026-05-08 04:17 | 9.07165 | -79.37948 | 143 ft | 18 kts | 306° |
| 2026-05-08 04:17 | 9.07200 | -79.38051 | 143 ft | 14 kts | 229° |
| 2026-05-08 04:17 | 9.07124 | -79.38100 | 143 ft | 10 kts | 212° |
| 2026-05-08 04:17 | 9.07066 | -79.38137 | 143 ft | 10 kts | 212° |
| 2026-05-08 04:18 | 9.07010 | -79.38173 | 143 ft | 9 kts | 212° |
| 2026-05-08 04:18 | 9.06957 | -79.38207 | 143 ft | 9 kts | 213° |
| 2026-05-08 04:18 | 9.06897 | -79.38268 | 143 ft | 15 kts | 238° |
| 2026-05-08 04:18 | 9.06851 | -79.38342 | 143 ft | 8 kts | 238° |
| 2026-05-08 04:19 | 9.06810 | -79.38381 | 143 ft | 8 kts | 213° |
| 2026-05-08 04:19 | 9.06776 | -79.38418 | 143 ft | 8 kts | 284° |
| 2026-05-08 04:19 | 9.06781 | -79.38447 | 143 ft | 4 kts | 278° |
| 2026-05-08 04:19 | 9.06784 | -79.38463 | 143 ft | 3 kts | 280° |
| 2026-05-08 04:20 | 9.06788 | -79.38483 | 143 ft | 0 kts | 281° |